Time;durP1;ratioP1;P1;durP2;ratioP2;P2;SDS_P1;SDS_P2;PMS_P1;PMS_P2;Temp;Humidity;BMP_temperature;BMP_pressure;BME280_temperature;BME280_humidity;BME280_pressure;Samples;Min_cycle;Max_cycle;Signal;HPM_P1;HPM_P2
2021/11/24 00:01:06;;;;;;;1.10;1.00;;;6.50;99.90;;;;;;5015678;28;20556;-72
2021/11/24 00:03:32;;;;;;;0.70;0.60;;;6.50;99.90;;;;;;5015657;28;20219;-73
2021/11/24 00:05:58;;;;;;;0.80;0.70;;;6.50;99.90;;;;;;5017949;28;20183;-73
2021/11/24 00:08:23;;;;;;;1.30;1.20;;;6.50;99.90;;;;;;5015526;28;20547;-72
2021/11/24 00:10:49;;;;;;;1.73;1.63;;;6.40;99.90;;;;;;5015484;28;20772;-73
2021/11/24 00:13:14;;;;;;;0.70;0.60;;;6.50;99.90;;;;;;5014152;28;20177;-73
2021/11/24 00:15:40;;;;;;;3.60;1.53;;;6.40;99.90;;;;;;5015080;28;20199;-73
2021/11/24 00:18:05;;;;;;;2.83;1.20;;;6.40;99.90;;;;;;5015305;28;20179;-72
2021/11/24 00:20:31;;;;;;;0.97;0.87;;;6.40;99.90;;;;;;5030144;28;20194;-73
2021/11/24 00:22:57;;;;;;;1.30;0.87;;;6.40;99.90;;;;;;5026220;28;20172;-72
2021/11/24 00:25:22;;;;;;;1.03;1.03;;;6.50;99.90;;;;;;5030147;28;20215;-73
2021/11/24 00:27:48;;;;;;;1.23;1.13;;;6.50;99.90;;;;;;5016226;28;20176;-73
2021/11/24 00:30:14;;;;;;;0.73;0.73;;;6.40;99.90;;;;;;5016427;28;20310;-74
2021/11/24 00:32:39;;;;;;;1.47;1.37;;;6.30;99.90;;;;;;5015575;28;20180;-74
2021/11/24 00:35:06;;;;;;;1.43;0.70;;;6.20;99.90;;;;;;5034357;28;20429;-73
2021/11/24 00:37:32;;;;;;;0.80;0.70;;;6.20;99.90;;;;;;5036504;28;20267;-73
2021/11/24 00:39:58;;;;;;;0.70;0.50;;;6.20;99.90;;;;;;5036088;28;20535;-73
2021/11/24 00:42:24;;;;;;;1.97;0.70;;;6.10;99.90;;;;;;5034775;28;20398;-73
2021/11/24 00:44:50;;;;;;;1.33;0.90;;;6.10;99.90;;;;;;5034430;28;20441;-73
2021/11/24 00:47:16;;;;;;;0.80;0.80;;;6.00;99.90;;;;;;5028973;28;20438;-72
2021/11/24 00:49:42;;;;;;;1.33;0.90;;;6.00;99.90;;;;;;5014193;28;20712;-73
2021/11/24 00:52:08;;;;;;;1.90;1.20;;;6.10;99.90;;;;;;5013162;28;20272;-73
2021/11/24 00:54:34;;;;;;;1.90;1.80;;;6.10;99.90;;;;;;5014661;28;20435;-73
2021/11/24 00:56:59;;;;;;;1.10;1.00;;;6.30;99.90;;;;;;5014378;28;20957;-73
2021/11/24 00:59:25;;;;;;;0.87;0.60;;;6.30;99.90;;;;;;5013536;28;20204;-73
2021/11/24 01:01:51;;;;;;;1.00;0.83;;;6.40;99.90;;;;;;5023997;28;20179;-73
2021/11/24 01:04:17;;;;;;;1.53;1.37;;;6.50;99.90;;;;;;5028295;28;20165;-73
2021/11/24 01:06:43;;;;;;;1.63;1.53;;;6.40;99.90;;;;;;5014197;28;20490;-73
2021/11/24 01:09:08;;;;;;;0.80;0.63;;;6.40;99.90;;;;;;5014236;28;20469;-73
2021/11/24 01:11:34;;;;;;;1.10;1.00;;;6.40;99.90;;;;;;5014414;28;20165;-73
2021/11/24 01:14:01;;;;;;;6.83;1.03;;;6.30;99.90;;;;;;5014379;28;20255;-73
2021/11/24 01:16:26;;;;;;;0.80;0.73;;;6.30;99.90;;;;;;5027706;28;20175;-73
2021/11/24 01:18:52;;;;;;;1.00;1.00;;;6.30;99.90;;;;;;5033597;28;20457;-73
2021/11/24 01:21:17;;;;;;;1.00;0.70;;;6.30;99.90;;;;;;5033563;28;20199;-73
2021/11/24 01:23:45;;;;;;;19.53;2.37;;;6.30;99.90;;;;;;5033898;28;20629;-73
2021/11/24 01:26:11;;;;;;;1.30;1.20;;;6.40;99.90;;;;;;5033708;28;20243;-73
2021/11/24 01:28:36;;;;;;;0.70;0.70;;;6.40;99.90;;;;;;5032672;28;20484;-73
2021/11/24 01:31:02;;;;;;;2.23;2.13;;;6.40;99.90;;;;;;5014833;28;20203;-73
2021/11/24 01:33:27;;;;;;;1.33;1.00;;;6.50;99.90;;;;;;5013981;28;20613;-73
2021/11/24 01:35:53;;;;;;;1.77;1.33;;;6.50;99.90;;;;;;5013725;28;20173;-73
2021/11/24 01:38:19;;;;;;;1.10;0.97;;;6.50;99.90;;;;;;5013034;28;20232;-73
2021/11/24 01:40:44;;;;;;;1.17;1.07;;;6.50;99.90;;;;;;5013914;28;20260;-73
2021/11/24 01:43:10;;;;;;;0.73;0.60;;;6.50;99.90;;;;;;5017062;28;20686;-73
2021/11/24 01:45:37;;;;;;;2.20;1.17;;;6.50;99.90;;;;;;5033222;28;20770;-73
2021/11/24 01:48:03;;;;;;;2.07;1.80;;;6.60;99.90;;;;;;5033485;28;20190;-73
2021/11/24 01:50:29;;;;;;;1.20;0.90;;;6.50;99.90;;;;;;5033084;28;20448;-73
2021/11/24 01:52:55;;;;;;;0.70;0.50;;;6.50;99.90;;;;;;5032152;28;20411;-73
2021/11/24 01:55:20;;;;;;;2.77;2.57;;;6.50;99.90;;;;;;5017980;28;20184;-73
2021/11/24 01:57:49;;;;;;;0.70;0.53;;;6.40;99.90;;;;;;5014561;28;20180;-73
2021/11/24 02:00:20;;;;;;;1.60;1.50;;;6.40;99.90;;;;;;5033114;28;20199;-73
2021/11/24 02:02:46;;;;;;;4.93;2.20;;;6.30;99.90;;;;;;5032989;28;20445;-73
2021/11/24 02:05:12;;;;;;;2.83;1.13;;;6.30;99.90;;;;;;5032888;28;20914;-73
2021/11/24 02:07:37;;;;;;;0.80;0.53;;;6.30;99.90;;;;;;5032511;28;20569;-73
2021/11/24 02:10:04;;;;;;;0.70;0.70;;;6.40;99.90;;;;;;5031265;28;20222;-73
2021/11/24 02:12:30;;;;;;;2.83;2.70;;;6.40;99.90;;;;;;5014913;28;20183;-73
2021/11/24 02:14:55;;;;;;;1.20;1.00;;;6.50;99.90;;;;;;5012914;28;20411;-73
2021/11/24 02:17:21;;;;;;;1.23;1.13;;;6.40;99.90;;;;;;5015350;28;20183;-73
2021/11/24 02:19:47;;;;;;;2.83;2.00;;;6.50;99.90;;;;;;5012992;28;20229;-73
2021/11/24 02:22:12;;;;;;;1.40;1.30;;;6.50;99.90;;;;;;5013137;28;20161;-73
2021/11/24 02:24:39;;;;;;;1.27;1.17;;;6.50;99.90;;;;;;5026328;28;20174;-73
2021/11/24 02:27:09;;;;;;;0.70;0.50;;;6.50;99.90;;;;;;5032107;28;20221;-73
2021/11/24 02:29:35;;;;;;;9.00;1.83;;;6.50;99.90;;;;;;5032365;28;20445;-73
2021/11/24 02:32:02;;;;;;;5.13;1.97;;;6.50;99.90;;;;;;5015899;28;20502;-73
2021/11/24 02:34:29;;;;;;;0.70;0.60;;;6.50;99.90;;;;;;5014868;28;20407;-73
2021/11/24 02:36:56;;;;;;;2.40;1.73;;;6.50;99.90;;;;;;5028722;28;20417;-73
2021/11/24 02:39:21;;;;;;;0.70;0.50;;;6.50;99.90;;;;;;5012836;28;20455;-73
2021/11/24 02:41:47;;;;;;;1.37;1.27;;;6.40;99.90;;;;;;5012749;28;20406;-73
2021/11/24 02:44:22;;;;;;;1.80;1.27;;;6.30;99.90;;;;;;5012970;28;20204;-73
2021/11/24 02:46:49;;;;;;;6.87;2.00;;;6.30;99.90;;;;;;5012373;28;20411;-73
2021/11/24 02:49:14;;;;;;;2.27;2.00;;;6.30;99.90;;;;;;5012610;28;20412;-73
2021/11/24 02:51:41;;;;;;;1.53;1.43;;;6.30;99.90;;;;;;5023031;28;20425;-73
2021/11/24 02:54:07;;;;;;;2.07;1.93;;;6.30;99.90;;;;;;5047640;28;20171;-73
2021/11/24 02:56:33;;;;;;;0.70;0.67;;;6.20;99.90;;;;;;5021162;28;20801;-73
2021/11/24 02:58:59;;;;;;;0.70;0.60;;;6.20;99.90;;;;;;5012456;28;20196;-73
2021/11/24 03:01:24;;;;;;;1.57;1.17;;;6.20;99.90;;;;;;5019195;28;20434;-73
2021/11/24 03:03:50;;;;;;;2.80;2.60;;;6.30;99.90;;;;;;5031609;28;20916;-73
2021/11/24 03:06:16;;;;;;;1.00;1.00;;;6.30;99.90;;;;;;5015802;28;20176;-73
2021/11/24 03:08:42;;;;;;;1.63;1.53;;;6.20;99.90;;;;;;5012367;28;20164;-73
2021/11/24 03:11:07;;;;;;;0.70;0.50;;;6.20;99.90;;;;;;5013368;28;20442;-73
2021/11/24 03:13:33;;;;;;;0.83;0.70;;;6.20;99.90;;;;;;5012318;28;20203;-73
2021/11/24 03:15:59;;;;;;;1.50;1.40;;;6.20;99.90;;;;;;5012069;28;20223;-73
2021/11/24 03:18:25;;;;;;;1.87;1.77;;;6.20;99.90;;;;;;5019498;28;20199;-73
2021/11/24 03:20:51;;;;;;;1.47;1.37;;;6.20;99.90;;;;;;5024898;28;20445;-73
2021/11/24 03:23:16;;;;;;;1.07;1.07;;;6.30;99.90;;;;;;5031418;28;20160;-73
2021/11/24 03:25:42;;;;;;;3.10;1.13;;;6.30;99.90;;;;;;5031652;28;20508;-73
2021/11/24 03:28:08;;;;;;;0.80;0.60;;;6.30;99.90;;;;;;5031636;28;20174;-73
2021/11/24 03:30:34;;;;;;;1.30;1.20;;;6.40;99.90;;;;;;5031547;28;20187;-73
2021/11/24 03:33:02;;;;;;;0.70;0.70;;;6.30;99.90;;;;;;5031884;28;20176;-73
2021/11/24 03:35:28;;;;;;;2.03;1.93;;;6.40;99.90;;;;;;5030892;28;20556;-73
2021/11/24 03:37:55;;;;;;;0.97;0.80;;;6.40;99.90;;;;;;5031876;28;20410;-73
2021/11/24 03:40:25;;;;;;;0.80;0.60;;;6.40;99.90;;;;;;5024954;28;20555;-73
2021/11/24 03:42:51;;;;;;;3.50;1.90;;;6.40;99.90;;;;;;5010799;28;20415;-73
2021/11/24 03:45:26;;;;;;;1.03;0.70;;;6.40;99.90;;;;;;5017400;28;20496;-73
2021/11/24 03:47:52;;;;;;;1.03;1.03;;;6.40;99.90;;;;;;5031770;28;20401;-73
2021/11/24 03:50:18;;;;;;;0.70;0.50;;;6.10;99.90;;;;;;5019996;28;20442;-73
2021/11/24 03:52:44;;;;;;;2.47;0.80;;;6.20;99.90;;;;;;5010863;28;20469;-73
2021/11/24 03:55:11;;;;;;;11.83;2.03;;;6.30;99.90;;;;;;5011708;28;20751;-73
2021/11/24 03:57:37;;;;;;;3.50;2.47;;;6.30;99.90;;;;;;5011708;28;20457;-73
2021/11/24 04:00:06;;;;;;;0.80;0.80;;;6.30;99.90;;;;;;5011579;28;20520;-73
2021/11/24 04:02:32;;;;;;;1.13;1.13;;;6.30;99.90;;;;;;5011596;28;20427;-73
2021/11/24 04:04:57;;;;;;;2.20;0.90;;;6.30;99.90;;;;;;5028669;28;20433;-73
2021/11/24 04:07:23;;;;;;;0.70;0.60;;;6.30;99.90;;;;;;5031209;28;20549;-73
2021/11/24 04:09:49;;;;;;;0.70;0.50;;;6.30;99.90;;;;;;5030257;28;20660;-73
2021/11/24 04:12:15;;;;;;;2.20;2.10;;;6.40;99.90;;;;;;5031530;28;20210;-73
2021/11/24 04:14:40;;;;;;;1.73;1.10;;;6.40;99.90;;;;;;5031355;28;20883;-73
2021/11/24 04:17:06;;;;;;;5.47;1.40;;;6.40;99.90;;;;;;5027491;28;20449;-73
2021/11/24 04:19:31;;;;;;;0.70;0.43;;;6.40;99.90;;;;;;5016701;28;20199;-73
2021/11/24 04:21:57;;;;;;;3.60;1.97;;;6.30;99.90;;;;;;5031106;28;20203;-73
2021/11/24 04:24:25;;;;;;;8.57;3.23;;;6.20;99.90;;;;;;5046719;28;20179;-73
2021/11/24 04:26:51;;;;;;;3.03;2.00;;;6.20;99.90;;;;;;5046457;28;20549;-73
2021/11/24 04:29:17;;;;;;;0.80;0.60;;;6.20;99.90;;;;;;5046495;28;20426;-73
2021/11/24 04:31:42;;;;;;;0.70;0.70;;;6.30;99.90;;;;;;5013512;28;20164;-73
2021/11/24 04:34:08;;;;;;;4.20;1.90;;;6.40;99.90;;;;;;5012649;28;20172;-73
2021/11/24 04:36:33;;;;;;;0.80;0.70;;;6.40;99.90;;;;;;5017324;28;20173;-73
2021/11/24 04:38:59;;;;;;;1.90;1.80;;;6.40;99.90;;;;;;5015929;28;20188;-73
2021/11/24 04:41:24;;;;;;;1.43;1.33;;;6.40;99.90;;;;;;5024551;28;20202;-73
2021/11/24 04:43:50;;;;;;;0.70;0.50;;;6.30;99.90;;;;;;5050902;28;20262;-73
2021/11/24 04:46:17;;;;;;;3.10;1.17;;;6.30;99.90;;;;;;5066418;28;20178;-73
2021/11/24 04:48:43;;;;;;;29.37;1.60;;;6.30;99.90;;;;;;5030366;28;20176;-73
2021/11/24 04:51:09;;;;;;;1.33;1.23;;;6.20;99.90;;;;;;5034480;28;20430;-73
2021/11/24 04:53:35;;;;;;;0.70;0.50;;;6.30;99.90;;;;;;5034540;28;20402;-73
2021/11/24 04:56:01;;;;;;;0.93;0.87;;;6.30;99.90;;;;;;5034073;28;20771;-73
2021/11/24 04:58:27;;;;;;;1.83;1.10;;;6.30;99.90;;;;;;5034311;28;20195;-73
2021/11/24 05:00:53;;;;;;;2.30;2.10;;;6.20;99.90;;;;;;5049983;28;20954;-73
2021/11/24 05:03:19;;;;;;;2.23;2.03;;;6.10;99.90;;;;;;5030571;28;20173;-73
2021/11/24 05:05:44;;;;;;;2.50;0.83;;;6.20;99.90;;;;;;5022343;28;20618;-73
2021/11/24 05:08:10;;;;;;;0.80;0.70;;;6.20;99.90;;;;;;5034269;28;20497;-73
2021/11/24 05:10:36;;;;;;;1.43;1.33;;;6.20;99.90;;;;;;5034156;28;20226;-73
2021/11/24 05:13:04;;;;;;;0.70;0.70;;;6.20;99.90;;;;;;5034245;28;20260;-73
2021/11/24 05:15:31;;;;;;;0.70;0.53;;;6.30;99.90;;;;;;5030451;28;20164;-73
2021/11/24 05:18:13;;;;;;;1.00;0.90;;;6.30;99.90;;;;;;5033421;28;20414;-73
2021/11/24 05:20:40;;;;;;;1.37;1.27;;;6.30;99.90;;;;;;5032599;28;20446;-73
2021/11/24 05:23:07;;;;;;;1.83;1.57;;;6.40;99.90;;;;;;5033862;28;20448;-73
2021/11/24 05:25:33;;;;;;;4.93;1.13;;;6.40;99.90;;;;;;5024402;28;20420;-73
2021/11/24 05:28:00;;;;;;;7.20;3.27;;;6.40;99.90;;;;;;5014173;28;20399;-73
2021/11/24 05:30:27;;;;;;;1.37;1.17;;;6.40;99.90;;;;;;5024275;28;20195;-73
2021/11/24 05:32:53;;;;;;;7.53;0.90;;;6.40;99.90;;;;;;5033610;28;20426;-73
2021/11/24 05:35:21;;;;;;;1.03;0.93;;;6.40;99.90;;;;;;5024783;28;20431;-73
2021/11/24 05:37:48;;;;;;;0.70;0.50;;;6.40;99.90;;;;;;5013930;28;20671;-73
2021/11/24 05:40:13;;;;;;;2.87;1.90;;;6.40;99.90;;;;;;5029065;28;20536;-73
2021/11/24 05:42:46;;;;;;;2.03;1.30;;;6.30;99.90;;;;;;5013952;28;20403;-73
2021/11/24 05:47:58;;;;;;;0.80;0.70;;;6.40;99.90;;;;;;5015866;28;20429;-73
2021/11/24 05:50:26;;;;;;;2.23;1.23;;;6.40;99.90;;;;;;5028931;28;20468;-73
2021/11/24 05:52:53;;;;;;;1.80;1.70;;;6.40;99.90;;;;;;5033412;28;20424;-73
2021/11/24 05:55:20;;;;;;;3.73;1.27;;;6.30;99.90;;;;;;5033110;28;20488;-73
2021/11/24 05:57:45;;;;;;;0.80;0.80;;;6.30;99.90;;;;;;5028260;28;20447;-73
2021/11/24 06:00:12;;;;;;;0.80;0.80;;;6.20;99.90;;;;;;5014592;28;20610;-73
2021/11/24 06:02:38;;;;;;;1.43;1.33;;;6.10;99.90;;;;;;5013866;28;20163;-73
2021/11/24 06:05:04;;;;;;;0.70;0.50;;;6.20;99.90;;;;;;5013154;28;20399;-73
2021/11/24 06:07:30;;;;;;;11.80;1.37;;;6.20;99.90;;;;;;5013261;28;20523;-73
2021/11/24 06:09:55;;;;;;;7.47;2.10;;;6.10;99.90;;;;;;5017124;28;20952;-73
2021/11/24 06:12:21;;;;;;;1.60;1.50;;;6.10;99.90;;;;;;5023040;28;20250;-73
2021/11/24 06:14:47;;;;;;;2.10;2.00;;;6.10;99.90;;;;;;5015489;28;20546;-73
2021/11/24 06:17:12;;;;;;;1.30;0.80;;;6.10;99.90;;;;;;5032922;28;20194;-73
2021/11/24 06:19:38;;;;;;;2.60;2.03;;;6.10;99.90;;;;;;5032319;28;20199;-73
2021/11/24 06:22:04;;;;;;;0.70;0.50;;;6.20;99.90;;;;;;5032894;28;20175;-73
2021/11/24 06:24:29;;;;;;;2.40;1.50;;;6.20;99.90;;;;;;5031290;28;20170;-73
2021/11/24 06:26:55;;;;;;;1.00;1.00;;;6.20;99.90;;;;;;5032205;28;20179;-73
2021/11/24 06:29:21;;;;;;;3.27;2.97;;;6.20;99.90;;;;;;5032663;28;20863;-73
2021/11/24 06:31:46;;;;;;;0.70;0.60;;;6.20;99.90;;;;;;5032696;28;20222;-73
2021/11/24 06:34:12;;;;;;;0.73;0.60;;;6.20;99.90;;;;;;5032050;28;20210;-73
2021/11/24 06:36:38;;;;;;;0.70;0.70;;;6.30;99.90;;;;;;5032365;28;20167;-73
2021/11/24 06:39:03;;;;;;;1.80;1.23;;;6.20;99.90;;;;;;5029018;28;20248;-73
2021/11/24 06:41:29;;;;;;;1.27;1.17;;;6.10;99.90;;;;;;5027495;28;20676;-73
2021/11/24 06:43:54;;;;;;;0.77;0.60;;;6.10;99.90;;;;;;5032602;28;20168;-73
2021/11/24 06:46:20;;;;;;;1.37;1.27;;;6.10;99.90;;;;;;5022449;28;20172;-73
2021/11/24 06:48:45;;;;;;;1.00;0.90;;;6.20;99.90;;;;;;5012693;28;20638;-73
2021/11/24 06:51:11;;;;;;;0.70;0.50;;;6.20;99.90;;;;;;5012666;28;20196;-73
2021/11/24 06:53:37;;;;;;;0.73;0.73;;;6.20;99.90;;;;;;5015089;28;20176;-73
2021/11/24 06:56:03;;;;;;;3.23;2.10;;;6.20;99.90;;;;;;5011768;28;20181;-73
2021/11/24 06:58:28;;;;;;;0.73;0.73;;;6.20;99.90;;;;;;5031126;28;20197;-73
2021/11/24 07:00:54;;;;;;;5.47;2.93;;;6.30;99.90;;;;;;5038997;28;21003;-73
2021/11/24 07:03:20;;;;;;;0.80;0.70;;;6.20;99.90;;;;;;5031587;28;20225;-73
2021/11/24 07:05:46;;;;;;;1.67;1.57;;;6.20;99.90;;;;;;5027435;28;20859;-73
2021/11/24 07:08:11;;;;;;;0.70;0.70;;;6.30;99.90;;;;;;5012361;28;20180;-73
2021/11/24 07:10:37;;;;;;;0.70;0.50;;;6.40;99.90;;;;;;5031076;28;20195;-73
2021/11/24 07:13:02;;;;;;;1.13;1.13;;;6.30;99.90;;;;;;5031825;28;20207;-73
2021/11/24 07:15:29;;;;;;;3.73;1.53;;;6.20;99.90;;;;;;5031882;28;20160;-73
2021/11/24 07:17:54;;;;;;;2.40;0.70;;;6.10;99.90;;;;;;5031840;28;20537;-73
2021/11/24 07:20:20;;;;;;;2.90;2.70;;;6.10;99.90;;;;;;5030214;28;20456;-73
2021/11/24 07:22:46;;;;;;;3.60;1.80;;;6.10;99.90;;;;;;5024776;28;20179;-73
2021/11/24 07:25:13;;;;;;;1.17;1.07;;;6.10;99.90;;;;;;5027644;28;20651;-73
2021/11/24 07:27:39;;;;;;;1.40;1.30;;;6.10;99.90;;;;;;5030699;28;20647;-73
2021/11/24 07:30:07;;;;;;;0.90;0.90;;;6.10;99.90;;;;;;5031928;28;20800;-72
2021/11/24 07:32:32;;;;;;;1.10;0.77;;;6.20;99.90;;;;;;5022587;28;20427;-72
2021/11/24 07:35:00;;;;;;;1.73;1.63;;;6.30;99.90;;;;;;5023193;28;20428;-73
2021/11/24 07:37:26;;;;;;;0.70;0.50;;;6.20;99.90;;;;;;5031840;28;20989;-72
2021/11/24 07:39:51;;;;;;;3.47;2.27;;;6.30;99.90;;;;;;5046286;28;20560;-72
2021/11/24 07:42:17;;;;;;;0.80;0.77;;;6.40;99.90;;;;;;5012112;28;20164;-72
2021/11/24 07:44:42;;;;;;;1.30;0.87;;;6.50;99.90;;;;;;5012036;28;20259;-73
2021/11/24 07:47:08;;;;;;;0.70;0.50;;;6.60;99.90;;;;;;5011764;28;20766;-73
2021/11/24 07:49:34;;;;;;;0.87;0.73;;;6.70;99.90;;;;;;5024926;28;20287;-73
2021/11/24 07:52:00;;;;;;;0.70;0.60;;;6.70;99.90;;;;;;5026544;28;20172;-73
2021/11/24 07:54:25;;;;;;;0.70;0.57;;;6.80;99.90;;;;;;5026972;28;20258;-72
2021/11/24 07:56:51;;;;;;;1.13;1.03;;;6.80;99.90;;;;;;5025113;28;20518;-72
2021/11/24 07:59:16;;;;;;;0.80;0.70;;;6.90;99.90;;;;;;5025665;28;20198;-72
2021/11/24 08:01:42;;;;;;;2.73;1.67;;;6.90;99.90;;;;;;5018818;28;20183;-73
2021/11/24 08:04:07;;;;;;;7.23;1.33;;;6.90;99.90;;;;;;5029840;28;20164;-73
2021/11/24 08:06:33;;;;;;;1.67;1.57;;;7.00;99.90;;;;;;5015865;28;20219;-73
2021/11/24 08:08:59;;;;;;;0.70;0.50;;;7.00;99.90;;;;;;5036591;28;20176;-73
2021/11/24 08:11:24;;;;;;;0.90;0.60;;;6.90;99.90;;;;;;5036399;28;20199;-74
2021/11/24 08:13:50;;;;;;;1.17;0.90;;;6.90;99.90;;;;;;5034640;28;20183;-73
2021/11/24 08:16:15;;;;;;;0.80;0.70;;;6.80;99.90;;;;;;5047846;28;20210;-73
2021/11/24 08:18:41;;;;;;;1.97;1.33;;;7.00;99.90;;;;;;5022551;28;20198;-73
2021/11/24 08:21:06;;;;;;;2.90;2.00;;;7.10;99.90;;;;;;5038854;28;20214;-73
2021/11/24 08:23:32;;;;;;;3.57;3.37;;;7.10;99.90;;;;;;5037806;28;20179;-73
2021/11/24 08:25:58;;;;;;;2.70;1.43;;;7.10;99.90;;;;;;5023884;28;20549;-73
2021/11/24 08:28:24;;;;;;;1.00;0.90;;;7.20;99.90;;;;;;5024402;28;20175;-72
2021/11/24 08:30:51;;;;;;;3.33;2.57;;;7.20;99.90;;;;;;5022099;28;20450;-73
2021/11/24 08:33:17;;;;;;;3.67;3.17;;;7.20;99.90;;;;;;5020041;28;20950;-73
2021/11/24 08:35:43;;;;;;;1.60;1.50;;;7.20;99.90;;;;;;5021674;28;20427;-73
2021/11/24 08:38:09;;;;;;;2.70;1.13;;;7.30;99.90;;;;;;5020798;28;20180;-71
2021/11/24 08:40:35;;;;;;;0.70;0.60;;;7.20;99.90;;;;;;5020700;28;20223;-74
2021/11/24 08:43:02;;;;;;;1.97;1.40;;;7.30;99.90;;;;;;5035404;28;20426;-74
2021/11/24 08:45:28;;;;;;;1.00;0.90;;;7.40;99.90;;;;;;5024090;28;20290;-74
2021/11/24 08:47:54;;;;;;;1.50;1.40;;;7.50;99.90;;;;;;5030636;28;20462;-73
2021/11/24 08:50:20;;;;;;;4.30;4.00;;;7.40;99.90;;;;;;5044878;28;20242;-73
2021/11/24 08:52:47;;;;;;;0.70;0.50;;;7.50;99.90;;;;;;5016985;28;20194;-73
2021/11/24 08:55:13;;;;;;;9.80;2.20;;;7.60;99.90;;;;;;5016808;28;20955;-73
2021/11/24 08:57:38;;;;;;;5.40;3.03;;;7.50;99.90;;;;;;5032148;28;20537;-74
2021/11/24 09:00:12;;;;;;;8.10;2.30;;;7.60;99.90;;;;;;5013405;28;20550;-72
2021/11/24 09:02:39;;;;;;;0.70;0.60;;;7.60;99.90;;;;;;5025219;28;20176;-73
2021/11/24 09:05:05;;;;;;;2.83;2.63;;;7.50;99.90;;;;;;5035986;28;20410;-73
2021/11/24 09:07:31;;;;;;;8.07;3.10;;;7.50;99.90;;;;;;5028589;28;20437;-73
2021/11/24 09:09:56;;;;;;;1.23;1.13;;;7.50;99.90;;;;;;5019452;28;20446;-73
2021/11/24 09:12:22;;;;;;;5.70;1.47;;;7.60;99.90;;;;;;5017227;28;20664;-73
2021/11/24 09:14:47;;;;;;;0.80;0.73;;;7.70;99.90;;;;;;5015261;28;20234;-73
2021/11/24 09:17:13;;;;;;;0.83;0.70;;;7.80;99.90;;;;;;5032066;28;20540;-73
2021/11/24 09:19:38;;;;;;;1.03;0.93;;;7.80;99.90;;;;;;5016869;28;20636;-73
2021/11/24 09:22:06;;;;;;;2.90;1.27;;;7.90;99.90;;;;;;5033243;28;20180;-73
2021/11/24 09:24:32;;;;;;;0.87;0.80;;;7.90;99.90;;;;;;5016435;28;20243;-73
2021/11/24 09:27:01;;;;;;;0.70;0.60;;;7.90;99.90;;;;;;5027311;28;20494;-72
2021/11/24 09:29:27;;;;;;;3.27;2.83;;;7.80;99.90;;;;;;5033847;28;20191;-73
2021/11/24 09:31:54;;;;;;;1.60;1.30;;;7.80;99.90;;;;;;5033544;28;20465;-73
2021/11/24 09:34:21;;;;;;;1.23;1.13;;;7.80;99.90;;;;;;5033751;28;20476;-72
2021/11/24 09:36:47;;;;;;;9.00;3.00;;;7.90;99.90;;;;;;5018363;28;20427;-72
2021/11/24 09:39:14;;;;;;;1.07;0.97;;;8.00;99.90;;;;;;5022331;28;20454;-73
2021/11/24 09:41:45;;;;;;;4.03;3.10;;;7.80;99.90;;;;;;5013834;28;20438;-72
2021/11/24 09:44:11;;;;;;;0.70;0.50;;;7.60;99.90;;;;;;5013883;28;20422;-73
2021/11/24 09:46:44;;;;;;;1.10;0.70;;;7.60;99.90;;;;;;5014718;28;20425;-72
2021/11/24 09:49:10;;;;;;;1.03;0.93;;;7.80;99.90;;;;;;5013640;28;20494;-72
2021/11/24 09:51:37;;;;;;;3.63;1.00;;;7.60;99.90;;;;;;5027628;28;20509;-72
2021/11/24 09:54:04;;;;;;;4.30;3.43;;;7.40;99.90;;;;;;5031743;28;20178;-72
2021/11/24 09:56:30;;;;;;;11.13;4.47;;;7.50;99.90;;;;;;5032556;28;20445;-72
2021/11/24 09:58:56;;;;;;;1.93;1.73;;;7.60;99.90;;;;;;5031577;28;20454;-72
2021/11/24 10:01:22;;;;;;;1.83;1.37;;;7.60;99.90;;;;;;5030118;28;20503;-72
2021/11/24 10:03:48;;;;;;;0.80;0.60;;;7.50;99.90;;;;;;5013371;28;20168;-73
2021/11/24 10:06:15;;;;;;;1.90;1.57;;;7.70;99.90;;;;;;5014263;28;20422;-73
2021/11/24 10:08:42;;;;;;;13.30;2.07;;;7.60;99.90;;;;;;5013257;28;20959;-72
2021/11/24 10:11:08;;;;;;;2.30;1.43;;;7.70;99.90;;;;;;5022088;28;20602;-73
2021/11/24 10:13:34;;;;;;;0.77;0.67;;;7.90;99.90;;;;;;5014918;28;20419;-73
2021/11/24 10:16:01;;;;;;;0.80;0.80;;;7.90;99.90;;;;;;5019216;28;21024;-72
2021/11/24 10:18:37;;;;;;;1.17;1.07;;;7.90;99.90;;;;;;5032649;28;20418;-72
2021/11/24 10:21:09;;;;;;;0.70;0.60;;;8.00;99.90;;;;;;5025430;28;20943;-73
2021/11/24 10:23:41;;;;;;;1.80;1.70;;;8.20;99.90;;;;;;5016959;28;20453;-73
2021/11/24 10:26:17;;;;;;;1.10;1.00;;;8.30;99.90;;;;;;5031414;28;20421;-72
2021/11/24 10:28:59;;;;;;;4.20;2.13;;;8.60;99.90;;;;;;5015551;28;20746;-74
2021/11/24 10:31:30;;;;;;;1.30;0.93;;;9.00;99.90;;;;;;5015925;28;20427;-73
2021/11/24 10:33:57;;;;;;;2.50;1.30;;;9.30;99.90;;;;;;5034888;28;20414;-74
2021/11/24 10:36:22;;;;;;;1.57;1.27;;;9.10;99.90;;;;;;5029936;28;20474;-73
2021/11/24 10:38:52;;;;;;;5.10;1.20;;;9.40;99.90;;;;;;5028815;28;20451;-73
2021/11/24 10:41:35;;;;;;;1.93;1.77;;;9.70;99.90;;;;;;5012918;28;20944;-73
2021/11/24 10:44:01;;;;;;;3.20;1.40;;;10.00;99.90;;;;;;5026220;28;20426;-73
2021/11/24 10:46:27;;;;;;;1.27;1.17;;;10.20;99.90;;;;;;5031884;28;20514;-73
2021/11/24 10:49:19;;;;;;;0.87;0.70;;;10.50;99.90;;;;;;5021746;28;20176;-74
2021/11/24 10:51:44;;;;;;;7.33;2.57;;;10.40;99.90;;;;;;5027488;28;21029;-73
2021/11/24 10:54:15;;;;;;;1.93;0.97;;;10.40;99.90;;;;;;5031991;28;20513;-73
2021/11/24 10:57:07;;;;;;;3.33;3.07;;;10.30;99.90;;;;;;5031963;28;20214;-73
2021/11/24 10:59:38;;;;;;;1.60;1.50;;;10.00;99.90;;;;;;5031694;28;20457;-74
2021/11/24 11:02:16;;;;;;;2.00;1.90;;;9.80;99.90;;;;;;5030592;28;20438;-73
2021/11/24 11:05:04;;;;;;;5.00;1.53;;;9.80;99.90;;;;;;5029121;28;20415;-73
2021/11/24 11:07:33;;;;;;;1.10;1.00;;;10.00;99.90;;;;;;5012960;28;20777;-73
2021/11/24 11:10:37;;;;;;;1.43;0.80;;;10.20;99.90;;;;;;5013447;28;20443;-73
2021/11/24 11:13:08;;;;;;;0.80;0.80;;;10.60;99.90;;;;;;5012834;28;20581;-73
2021/11/24 11:15:48;;;;;;;3.23;1.33;;;10.60;99.90;;;;;;5013120;28;20968;-74
2021/11/24 11:18:20;;;;;;;2.93;2.20;;;10.40;99.90;;;;;;5028915;28;20529;-73
2021/11/24 11:21:06;;;;;;;0.77;0.77;;;10.30;99.90;;;;;;5014440;28;20504;-73
2021/11/24 11:23:35;;;;;;;1.93;1.73;;;10.70;99.90;;;;;;5012312;28;20415;-73
2021/11/24 11:26:03;;;;;;;4.20;1.37;;;11.00;99.90;;;;;;5011883;28;20427;-74
2021/11/24 11:28:35;;;;;;;0.90;0.90;;;10.80;99.90;;;;;;5012133;28;20820;-73
2021/11/24 11:31:02;;;;;;;3.23;2.10;;;11.00;99.90;;;;;;5015574;28;21112;-73
2021/11/24 11:33:33;;;;;;;2.00;1.80;;;10.40;99.90;;;;;;5012174;28;20419;-73
2021/11/24 11:36:03;;;;;;;0.80;0.70;;;9.90;99.90;;;;;;5010573;28;20940;-73
2021/11/24 11:38:29;;;;;;;1.67;1.07;;;9.80;99.90;;;;;;5020709;28;20410;-75
2021/11/24 11:40:54;;;;;;;11.77;2.10;;;9.50;99.90;;;;;;5032291;28;20465;-75
2021/11/24 11:43:22;;;;;;;2.20;1.30;;;9.70;99.90;;;;;;5036662;28;20193;-74
2021/11/24 11:45:48;;;;;;;2.43;2.33;;;10.00;99.90;;;;;;5025473;28;20180;-74
2021/11/24 11:48:13;;;;;;;3.77;3.30;;;9.80;99.90;;;;;;5023874;28;20808;-74
2021/11/24 11:50:47;;;;;;;2.53;2.40;;;9.60;99.90;;;;;;5020176;28;20246;-74
2021/11/24 11:53:26;;;;;;;1.30;0.73;;;9.70;99.90;;;;;;5018486;28;20187;-74
2021/11/24 11:56:10;;;;;;;1.57;1.10;;;9.20;99.90;;;;;;5018611;28;20924;-74
2021/11/24 11:58:49;;;;;;;1.73;1.63;;;9.40;99.90;;;;;;5036281;28;20480;-75
2021/11/24 12:01:33;;;;;;;1.50;1.03;;;9.40;99.90;;;;;;5037442;28;20437;-75
2021/11/24 12:04:19;;;;;;;1.37;1.27;;;9.20;99.90;;;;;;5026260;28;20810;-74
2021/11/24 12:07:02;;;;;;;1.67;1.10;;;9.20;99.90;;;;;;5028138;28;20418;-74
2021/11/24 12:09:30;;;;;;;0.80;0.70;;;9.00;99.90;;;;;;5024833;28;20533;-74
2021/11/24 12:11:59;;;;;;;2.40;2.20;;;9.00;99.90;;;;;;5028493;28;20425;-74
2021/11/24 12:14:52;;;;;;;11.30;2.37;;;8.90;99.90;;;;;;5038347;28;20413;-74
2021/11/24 12:17:30;;;;;;;1.03;0.93;;;8.60;99.90;;;;;;5027131;28;20518;-74
2021/11/24 12:20:17;;;;;;;3.27;1.73;;;8.60;99.90;;;;;;5029378;28;20466;-74
2021/11/24 12:22:48;;;;;;;0.70;0.50;;;8.40;99.90;;;;;;5020217;28;20973;-74
2021/11/24 12:27:53;;;;;;;0.70;0.50;;;8.30;99.90;;;;;;5038335;28;20423;-74
2021/11/24 12:30:34;;;;;;;0.83;0.70;;;8.20;99.90;;;;;;5025122;28;20453;-73
2021/11/24 12:33:15;;;;;;;0.70;0.50;;;8.10;99.90;;;;;;5018816;28;20426;-74
2021/11/24 12:35:46;;;;;;;0.70;0.50;;;7.90;99.90;;;;;;5017878;28;20434;-73
2021/11/24 12:38:12;;;;;;;2.20;2.10;;;7.90;99.90;;;;;;5028844;28;20430;-74
2021/11/24 12:40:40;;;;;;;0.80;0.80;;;7.90;99.90;;;;;;5035404;28;20960;-73
2021/11/24 12:43:15;;;;;;;0.80;0.60;;;8.00;99.90;;;;;;5029890;28;21114;-74
2021/11/24 12:46:02;;;;;;;0.80;0.70;;;7.90;99.90;;;;;;5020155;28;20438;-74
2021/11/24 12:48:45;;;;;;;1.33;1.23;;;7.90;99.90;;;;;;5054656;28;20463;-74
2021/11/24 12:51:15;;;;;;;0.70;0.50;;;8.00;99.90;;;;;;5028258;28;20437;-72
2021/11/24 12:53:41;;;;;;;0.70;0.50;;;8.10;99.90;;;;;;5045168;28;20432;-72
2021/11/24 12:56:10;;;;;;;0.70;0.50;;;8.20;99.90;;;;;;5031188;28;20509;-73
2021/11/24 12:58:36;;;;;;;1.63;0.80;;;8.40;99.90;;;;;;5032946;28;20163;-73
2021/11/24 13:01:22;;;;;;;1.00;0.60;;;8.40;99.90;;;;;;5029916;28;20846;-73
2021/11/24 13:04:14;;;;;;;0.70;0.50;;;8.40;99.90;;;;;;5014637;28;20410;-73